createdAt,value
2023-03-05T00:02:24.196Z,95.33
2023-03-05T00:07:26.655Z,94.83
2023-03-05T00:12:29.780Z,95.01
2023-03-05T00:17:32.428Z,94.81
2023-03-05T00:22:34.802Z,94.73
2023-03-05T00:27:36.508Z,94.59
2023-03-05T00:32:38.255Z,94.63
2023-03-05T00:37:40.114Z,95.09
2023-03-05T00:43:01.926Z,95.46
2023-03-05T00:48:07.071Z,95.54
2023-03-05T00:53:11.022Z,96.02
2023-03-05T00:58:12.821Z,96.05
2023-03-05T01:03:14.476Z,94.45
2023-03-05T01:08:17.081Z,89.34
2023-03-05T01:13:19.440Z,88.39
2023-03-05T01:18:21.343Z,85.56
2023-03-05T01:23:23.533Z,83.96
2023-03-05T01:28:26.352Z,82.75
2023-03-05T01:33:28.124Z,82.74
2023-03-05T01:38:29.840Z,82.16
2023-03-05T01:43:31.639Z,81.11
2023-03-05T01:48:33.417Z,79.44
2023-03-05T01:53:35.867Z,79.38
2023-03-05T01:58:39.934Z,79.08
2023-03-05T02:03:42.440Z,79.07
2023-03-05T02:08:44.190Z,78.48
2023-03-05T02:13:46.234Z,77.86
2023-03-05T02:18:48.266Z,76.67
2023-03-05T02:23:50.053Z,77.57
2023-03-05T02:28:57.200Z,78.09
2023-03-05T02:33:59.027Z,78.58
2023-03-05T02:39:01.191Z,78.48
2023-03-05T02:44:03.149Z,78.44
2023-03-05T02:49:05.576Z,78.23
2023-03-05T02:54:07.463Z,77.47
2023-03-05T02:59:10.142Z,77.11
2023-03-05T03:04:12.113Z,77.02
2023-03-05T03:09:13.890Z,76.51
2023-03-05T03:14:15.678Z,77.71
2023-03-05T03:19:17.367Z,77.60
2023-03-05T03:24:18.990Z,78.00
2023-03-05T03:29:20.681Z,78.35
2023-03-05T03:34:22.551Z,78.37
2023-03-05T03:39:25.558Z,78.47
2023-03-05T03:44:27.509Z,78.52
2023-03-05T03:49:29.297Z,78.19
2023-03-05T03:54:30.964Z,78.33
2023-03-05T03:59:32.633Z,78.79
2023-03-05T04:04:34.337Z,78.86
2023-03-05T04:09:36.080Z,79.39
2023-03-05T04:14:38.077Z,79.40
2023-03-05T04:19:39.821Z,79.29
2023-03-05T04:24:41.672Z,79.12
2023-03-05T04:29:43.485Z,78.81
2023-03-05T04:34:45.322Z,79.08
2023-03-05T04:39:47.115Z,78.90
2023-03-05T04:44:49.861Z,78.90
2023-03-05T04:49:51.722Z,77.86
2023-03-05T04:54:54.574Z,78.35
2023-03-05T04:59:56.430Z,79.45
2023-03-05T05:06:13.794Z,80.44
2023-03-05T05:11:15.425Z,80.64
2023-03-05T05:16:17.270Z,80.35
2023-03-05T05:21:20.412Z,80.02
2023-03-05T05:26:22.202Z,79.31
2023-03-05T05:31:24.028Z,79.28
2023-03-05T05:36:25.852Z,78.79
2023-03-05T05:41:27.474Z,78.39
2023-03-05T05:46:29.257Z,78.88
2023-03-05T05:51:31.104Z,78.59
2023-03-05T05:56:34.014Z,78.87
2023-03-05T06:01:35.730Z,79.75
2023-03-05T06:06:37.509Z,80.29
2023-03-05T06:11:39.268Z,81.05
2023-03-05T06:16:41.141Z,80.98
2023-03-05T06:21:45.729Z,80.88
2023-03-05T06:26:48.672Z,80.88
2023-03-05T06:31:50.419Z,81.06
2023-03-05T06:36:52.165Z,80.43
2023-03-05T06:41:53.800Z,80.20
2023-03-05T06:46:55.493Z,79.49
2023-03-05T06:51:57.170Z,79.44
2023-03-05T06:56:59.117Z,79.35
2023-03-05T07:02:00.887Z,79.15
2023-03-05T07:07:02.630Z,79.16
2023-03-05T07:12:04.771Z,79.19
2023-03-05T07:17:06.895Z,78.75
2023-03-05T07:22:08.822Z,78.21
2023-03-05T07:27:10.651Z,77.86
2023-03-05T07:32:12.413Z,77.81
2023-03-05T07:37:14.456Z,77.80
2023-03-05T07:42:16.255Z,77.81
2023-03-05T07:47:25.369Z,76.71
2023-03-05T07:52:27.094Z,76.29
2023-03-05T07:57:29.186Z,76.03
2023-03-05T08:02:31.132Z,75.53
2023-03-05T08:07:33.084Z,74.33
2023-03-05T08:12:34.919Z,74.33
2023-03-05T08:17:36.652Z,73.41
2023-03-05T08:22:38.538Z,72.79
2023-03-05T08:27:42.960Z,72.75
2023-03-05T08:32:45.119Z,72.93
2023-03-05T08:37:48.211Z,72.61
2023-03-05T08:42:51.985Z,72.55
2023-03-05T08:47:56.275Z,72.84
2023-03-05T08:52:58.214Z,73.27
2023-03-05T08:58:00.056Z,73.09
2023-03-05T09:03:02.020Z,73.15
2023-03-05T09:08:03.868Z,73.95
2023-03-05T09:13:05.679Z,75.04
2023-03-05T09:18:09.044Z,74.92
2023-03-05T09:23:10.734Z,76.26
2023-03-05T09:28:12.386Z,78.84
2023-03-05T09:33:14.271Z,80.52
2023-03-05T09:38:16.038Z,82.40
2023-03-05T09:43:33.127Z,83.59
2023-03-05T09:48:56.444Z,83.68
2023-03-05T09:54:04.727Z,84.43
2023-03-05T09:59:28.927Z,84.42
2023-03-05T10:04:44.559Z,85.09
2023-03-05T10:09:57.942Z,84.45
2023-03-05T10:15:03.150Z,84.39
2023-03-05T10:20:22.639Z,83.82
2023-03-05T10:25:36.630Z,83.68
2023-03-05T10:30:58.667Z,81.74
2023-03-05T10:36:11.612Z,82.02
2023-03-05T10:41:42.597Z,82.59
2023-03-05T10:46:46.089Z,82.38
2023-03-05T10:51:59.363Z,81.05
2023-03-05T10:57:19.671Z,79.85
2023-03-05T11:02:23.755Z,78.57
2023-03-05T11:07:25.569Z,76.34
2023-03-05T11:12:29.021Z,75.66
2023-03-05T11:17:45.841Z,75.17
2023-03-05T11:23:10.720Z,73.55
2023-03-05T11:28:31.964Z,72.77
2023-03-05T11:33:37.001Z,72.04
2023-03-05T11:39:07.873Z,72.42
2023-03-05T11:44:14.674Z,72.79
2023-03-05T11:49:24.221Z,73.92
2023-03-05T11:54:39.262Z,69.42
2023-03-05T11:59:41.753Z,66.34
2023-03-05T12:04:43.547Z,65.33
2023-03-05T12:09:49.591Z,65.54
2023-03-05T12:14:51.493Z,61.69
2023-03-05T12:20:13.047Z,58.66
2023-03-05T12:25:35.145Z,57.75
2023-03-05T12:30:36.996Z,57.99
2023-03-05T12:35:41.195Z,57.13
2023-03-05T12:40:43.113Z,57.11
2023-03-05T12:46:24.824Z,56.32
2023-03-05T12:51:34.681Z,59.57
2023-03-05T12:56:45.026Z,60.96
2023-03-05T13:02:03.839Z,60.68
2023-03-05T13:07:13.564Z,59.11
2023-03-05T13:12:15.435Z,59.53
2023-03-05T13:17:32.843Z,60.58
2023-03-05T13:22:34.896Z,60.33
2023-03-05T13:27:36.662Z,60.19
2023-03-05T13:32:39.684Z,59.51
2023-03-05T13:37:44.141Z,59.83
2023-03-05T13:42:46.317Z,61.14
2023-03-05T13:48:03.104Z,62.47
2023-03-05T13:53:19.459Z,63.08
2023-03-05T13:58:49.665Z,64.27
2023-03-05T14:03:57.605Z,65.27
2023-03-05T14:09:06.519Z,65.61
2023-03-05T14:14:16.764Z,65.38
2023-03-05T14:19:39.258Z,65.42
2023-03-05T14:24:52.284Z,65.62
2023-03-05T14:29:54.476Z,65.17
2023-03-05T14:34:58.426Z,65.24
2023-03-05T14:40:05.340Z,64.70
2023-03-05T14:45:16.784Z,64.54
2023-03-05T14:50:33.441Z,65.24
2023-03-05T14:55:38.378Z,65.97
2023-03-05T15:00:41.374Z,67.59
2023-03-05T15:05:46.073Z,68.51
2023-03-05T15:10:48.975Z,68.27
2023-03-05T15:15:52.466Z,68.18
2023-03-05T15:20:54.994Z,68.36
2023-03-05T15:25:56.987Z,68.36
2023-03-05T15:31:00.237Z,68.60
2023-03-05T15:36:03.019Z,69.41
2023-03-05T15:41:06.427Z,71.18
2023-03-05T15:46:08.295Z,76.70
2023-03-05T15:51:11.531Z,78.16
2023-03-05T15:56:19.737Z,78.39
2023-03-05T16:01:23.373Z,77.82
2023-03-05T16:06:25.929Z,77.96
2023-03-05T16:11:28.826Z,78.56
2023-03-05T16:16:32.365Z,78.06
2023-03-05T16:21:34.351Z,76.75
2023-03-05T16:26:37.787Z,76.48
2023-03-05T16:31:41.564Z,76.26
2023-03-05T16:36:52.705Z,76.56
2023-03-05T16:41:54.813Z,77.91
2023-03-05T16:46:56.653Z,80.62
2023-03-05T16:52:08.975Z,82.96
2023-03-05T16:57:24.878Z,85.05
2023-03-05T17:02:27.135Z,85.91
2023-03-05T17:07:28.950Z,86.88
2023-03-05T17:12:30.663Z,87.22
2023-03-05T17:17:33.172Z,86.66
2023-03-05T17:22:35.432Z,86.97
2023-03-05T17:27:37.543Z,88.05
2023-03-05T17:32:41.466Z,88.75
2023-03-05T17:37:43.362Z,89.11
2023-03-05T17:42:45.217Z,88.59
2023-03-05T17:47:47.020Z,87.68
2023-03-05T17:52:49.124Z,87.21
2023-03-05T17:57:51.510Z,86.75
2023-03-05T18:02:54.848Z,86.33
2023-03-05T18:07:56.658Z,86.20
2023-03-05T18:12:59.399Z,85.94
2023-03-05T18:18:01.534Z,85.80
2023-03-05T18:23:05.514Z,85.26
2023-03-05T18:28:10.140Z,85.27
2023-03-05T18:33:25.547Z,85.18
2023-03-05T18:38:29.573Z,84.92
2023-03-05T18:43:31.952Z,85.15
2023-03-05T18:48:33.729Z,85.13
2023-03-05T18:53:35.462Z,85.42
2023-03-05T18:58:37.792Z,85.59
2023-03-05T19:03:39.658Z,85.47
2023-03-05T19:08:41.983Z,85.38
2023-03-05T19:13:49.121Z,85.68
2023-03-05T19:19:08.929Z,86.03
2023-03-05T19:24:15.619Z,85.97
2023-03-05T19:29:17.515Z,85.92
2023-03-05T19:34:20.756Z,85.91
2023-03-05T19:39:22.487Z,85.82
2023-03-05T19:44:24.553Z,85.76
2023-03-05T19:49:26.532Z,85.33
2023-03-05T19:54:28.417Z,85.88
2023-03-05T19:59:30.227Z,85.37
2023-03-05T20:04:31.962Z,85.62
2023-03-05T20:09:33.715Z,85.53
2023-03-05T20:14:35.419Z,86.54
2023-03-05T20:19:38.277Z,86.96
2023-03-05T20:24:39.990Z,86.80
2023-03-05T20:29:42.101Z,86.71
2023-03-05T20:34:43.767Z,85.81
2023-03-05T20:39:45.368Z,85.18
2023-03-05T20:44:47.156Z,85.15
2023-03-05T20:49:48.940Z,85.19
2023-03-05T20:54:50.577Z,84.96
2023-03-05T20:59:52.266Z,84.63
2023-03-05T21:04:54.126Z,84.71
2023-03-05T21:09:55.896Z,84.75
2023-03-05T21:14:57.947Z,84.02
2023-03-05T21:20:00.918Z,84.22
2023-03-05T21:25:21.206Z,83.56
2023-03-05T21:30:23.614Z,83.79
2023-03-05T21:35:25.443Z,83.91
2023-03-05T21:40:27.979Z,84.28
2023-03-05T21:45:30.664Z,84.60
2023-03-05T21:50:33.756Z,84.21
2023-03-05T21:56:26.418Z,83.21
2023-03-05T22:01:28.269Z,83.09
2023-03-05T22:06:31.612Z,83.74
2023-03-05T22:11:34.484Z,83.53
2023-03-05T22:16:36.783Z,82.63
2023-03-05T22:21:38.529Z,83.18
2023-03-05T22:26:41.532Z,83.71
2023-03-05T22:31:44.707Z,84.47
2023-03-05T22:36:46.460Z,84.80
2023-03-05T22:41:52.175Z,84.55
2023-03-05T22:46:54.792Z,83.99
2023-03-05T22:51:58.820Z,83.56
2023-03-05T22:57:00.432Z,83.66
2023-03-05T23:02:02.231Z,83.23
2023-03-05T23:07:04.175Z,83.14
2023-03-05T23:12:06.345Z,81.91
2023-03-05T23:17:08.055Z,81.30
2023-03-05T23:22:12.786Z,81.52
2023-03-05T23:27:16.700Z,81.99
2023-03-05T23:32:18.480Z,82.35
2023-03-05T23:37:20.190Z,82.66
2023-03-05T23:42:21.923Z,82.80
2023-03-05T23:47:23.683Z,83.38
2023-03-05T23:52:25.458Z,82.49
2023-03-05T23:57:27.300Z,82.65
